Time;durP1;ratioP1;P1;durP2;ratioP2;P2;SDS_P1;SDS_P2;PMS_P1;PMS_P2;Temp;Humidity;BMP_temperature;BMP_pressure;BME280_temperature;BME280_humidity;BME280_pressure;Samples;Min_cycle;Max_cycle;Signal;HPM_P1;HPM_P2
2021/05/08 00:00:37;;;;;;;6.88;4.40;;;;;;;3.66;64.37;97012.03;5004544;28;20044;-82
2021/05/08 00:03:03;;;;;;;6.03;4.45;;;;;;;3.62;64.50;97011.47;4999151;28;20046;-82
2021/05/08 00:05:30;;;;;;;8.48;4.70;;;;;;;3.60;64.48;97013.34;4997662;28;20133;-82
2021/05/08 00:07:57;;;;;;;6.05;4.72;;;;;;;3.57;64.72;97005.88;4997224;28;20046;-82
2021/05/08 00:10:24;;;;;;;6.45;4.72;;;;;;;3.55;64.82;97015.50;4996467;28;20497;-82
2021/05/08 00:12:51;;;;;;;4.82;4.05;;;;;;;3.57;64.74;97011.03;4995632;28;20425;-82
2021/05/08 00:15:18;;;;;;;5.32;4.13;;;;;;;3.55;64.57;97009.53;4996012;28;20050;-82
2021/05/08 00:17:45;;;;;;;4.65;4.15;;;;;;;3.53;64.39;97011.44;4996539;28;20054;-82
2021/05/08 00:20:14;;;;;;;5.32;4.15;;;;;;;3.51;64.61;97011.53;4998110;28;20054;-82
2021/05/08 00:22:41;;;;;;;6.10;4.40;;;;;;;3.52;64.93;97015.78;5001920;28;20555;-82
2021/05/08 00:25:10;;;;;;;4.40;3.70;;;;;;;3.51;64.88;97004.63;5000275;28;20046;-82
2021/05/08 00:27:37;;;;;;;4.40;4.00;;;;;;;3.48;64.74;97006.66;5000876;28;20057;-82
2021/05/08 00:30:06;;;;;;;4.43;3.92;;;;;;;3.46;64.46;96999.03;5000063;28;20054;-82
2021/05/08 00:32:33;;;;;;;4.20;3.80;;;;;;;3.47;64.53;96999.84;4998875;28;20050;-82
2021/05/08 00:35:00;;;;;;;6.63;4.72;;;;;;;3.49;64.76;97003.94;4998769;28;20042;-82
2021/05/08 00:37:26;;;;;;;4.38;3.95;;;;;;;3.48;64.44;96998.91;5000992;28;20507;-82
2021/05/08 00:39:53;;;;;;;4.57;3.85;;;;;;;3.47;64.50;97002.44;5001348;28;20046;-82
2021/05/08 00:42:20;;;;;;;4.70;4.30;;;;;;;3.45;64.31;96994.81;5000447;28;20042;-82
2021/05/08 00:44:47;;;;;;;4.80;3.63;;;;;;;3.43;64.16;96990.72;4999736;28;20055;-82
2021/05/08 00:47:15;;;;;;;4.22;3.63;;;;;;;3.40;64.37;97001.31;5001257;28;20060;-82
2021/05/08 00:49:43;;;;;;;4.60;4.20;;;;;;;3.34;64.27;97002.63;5003317;28;20173;-82
2021/05/08 00:52:10;;;;;;;4.07;3.38;;;;;;;3.31;64.34;96995.16;4998645;28;20061;-82
2021/05/08 00:54:36;;;;;;;3.92;3.60;;;;;;;3.28;64.33;96991.06;5000315;28;20054;-82
2021/05/08 00:57:03;;;;;;;4.78;3.65;;;;;;;3.25;64.87;96990.50;5000988;28;20052;-82
2021/05/08 00:59:30;;;;;;;3.60;3.25;;;;;;;3.24;64.72;96992.25;5001308;28;20508;-82
2021/05/08 01:01:57;;;;;;;5.25;3.55;;;;;;;3.25;64.84;96991.31;5001939;28;20061;-81
2021/05/08 01:04:25;;;;;;;6.63;4.22;;;;;;;3.24;64.36;96997.41;5001690;28;20081;-82
2021/05/08 01:06:53;;;;;;;5.35;4.40;;;;;;;3.21;64.59;96997.66;5000339;28;20054;-82
2021/05/08 01:09:21;;;;;;;4.90;4.00;;;;;;;3.23;65.61;96992.38;4997525;28;20054;-82
2021/05/08 01:11:48;;;;;;;5.00;3.92;;;;;;;3.27;65.36;97002.31;5000306;28;20061;-82
2021/05/08 01:14:16;;;;;;;4.93;4.03;;;;;;;3.30;65.32;97004.66;5000277;28;20672;-82
2021/05/08 01:16:42;;;;;;;7.03;4.38;;;;;;;3.31;64.63;97002.88;5005186;28;20030;-82
2021/05/08 01:19:11;;;;;;;4.15;3.72;;;;;;;3.33;64.33;97010.50;5021298;28;20090;-81
2021/05/08 01:21:38;;;;;;;4.70;3.65;;;;;;;3.29;64.58;97000.44;5020395;28;20034;-82
2021/05/08 01:24:05;;;;;;;4.65;4.15;;;;;;;3.29;64.60;97002.19;4999773;28;20046;-82
2021/05/08 01:26:32;;;;;;;4.93;3.70;;;;;;;3.25;64.68;97004.19;4997564;28;20058;-82
2021/05/08 01:28:59;;;;;;;5.45;3.60;;;;;;;3.23;64.68;97002.69;4997515;28;20518;-82
2021/05/08 01:31:25;;;;;;;3.47;3.17;;;;;;;3.19;64.40;97012.44;4996904;28;20054;-82
2021/05/08 01:33:52;;;;;;;3.97;3.58;;;;;;;3.16;64.45;97015.25;4997175;28;20073;-82
2021/05/08 01:36:19;;;;;;;4.05;3.65;;;;;;;3.17;64.67;97016.06;4998530;28;20542;-82
2021/05/08 01:38:47;;;;;;;3.88;3.55;;;;;;;3.16;64.75;97014.44;4998803;28;20435;-82
2021/05/08 01:41:13;;;;;;;4.13;3.30;;;;;;;3.15;64.73;97003.34;4998021;28;20420;-82
2021/05/08 01:43:40;;;;;;;3.75;3.28;;;;;;;3.15;64.84;97002.50;4997746;28;20054;-82
2021/05/08 01:46:06;;;;;;;3.60;3.30;;;;;;;3.14;64.65;97001.69;5015927;28;20057;-80
2021/05/08 01:48:34;;;;;;;4.07;3.60;;;;;;;3.14;64.59;97008.59;5019466;28;20046;-81
2021/05/08 01:51:00;;;;;;;3.88;3.42;;;;;;;3.14;64.81;97009.41;5004646;28;20113;-82
2021/05/08 01:53:27;;;;;;;4.10;3.70;;;;;;;3.15;64.66;97005.91;4998345;28;20452;-82
2021/05/08 01:55:55;;;;;;;4.45;3.88;;;;;;;3.19;64.85;96999.56;4997612;28;20050;-82
2021/05/08 01:58:22;;;;;;;5.07;3.80;;;;;;;3.24;64.96;96994.84;5018420;28;20102;-82
2021/05/08 02:00:49;;;;;;;5.05;4.03;;;;;;;3.27;64.58;96994.56;5009760;28;20050;-82
2021/05/08 02:03:17;;;;;;;4.47;3.95;;;;;;;3.32;64.42;96994.19;4997330;28;20432;-82
2021/05/08 02:05:46;;;;;;;3.78;3.30;;;;;;;3.38;64.55;97003.19;4996992;28;20516;-82
2021/05/08 02:08:14;;;;;;;4.70;4.18;;;;;;;3.42;64.34;97002.00;4995981;28;20058;-82
2021/05/08 02:10:43;;;;;;;4.53;3.65;;;;;;;3.45;63.94;96994.81;4996606;28;20093;-82
2021/05/08 02:13:12;;;;;;;4.10;3.70;;;;;;;3.48;64.10;96999.72;4996420;28;20077;-82
2021/05/08 02:15:39;;;;;;;6.85;4.18;;;;;;;3.49;64.00;96990.22;4996589;28;20050;-82
2021/05/08 02:18:06;;;;;;;5.15;4.38;;;;;;;3.51;63.51;96988.34;4996138;28;20050;-82
2021/05/08 02:20:35;;;;;;;5.22;4.68;;;;;;;3.55;63.96;96979.41;4996314;28;20448;-82
2021/05/08 02:23:04;;;;;;;5.13;3.90;;;;;;;3.58;64.22;96980.91;4995812;28;20057;-82
2021/05/08 02:25:32;;;;;;;5.88;4.25;;;;;;;3.61;64.03;96984.06;4995763;28;20042;-82
2021/05/08 02:27:59;;;;;;;5.85;4.85;;;;;;;3.63;64.23;96977.00;5015589;22;20052;-79
2021/05/08 02:30:29;;;;;;;6.82;4.65;;;;;;;3.67;63.95;96962.91;4996707;28;20073;-80
2021/05/08 02:32:59;;;;;;;6.30;4.63;;;;;;;3.72;64.11;96965.09;4994818;28;20061;-79
2021/05/08 02:35:27;;;;;;;5.72;5.15;;;;;;;3.78;64.09;96963.72;5008672;28;20065;-79
2021/05/08 02:37:55;;;;;;;5.82;5.15;;;;;;;3.80;63.45;96961.84;5016978;28;20042;-78
2021/05/08 02:40:24;;;;;;;5.80;5.00;;;;;;;3.82;64.07;96959.94;5017971;28;20065;-78
2021/05/08 02:42:50;;;;;;;7.30;5.40;;;;;;;3.85;64.21;96946.81;5016921;28;20069;-78
2021/05/08 02:45:17;;;;;;;8.25;6.38;;;;;;;3.89;64.00;96950.72;4998397;28;20050;-80
2021/05/08 02:47:45;;;;;;;7.95;5.70;;;;;;;3.90;63.75;96942.06;5007656;28;20055;-80
2021/05/08 02:50:15;;;;;;;6.65;5.70;;;;;;;3.90;63.54;96949.78;5011624;28;20057;-79
2021/05/08 02:52:42;;;;;;;7.38;5.85;;;;;;;3.90;64.13;96952.38;5012172;28;20141;-78
2021/05/08 02:55:10;;;;;;;8.65;5.78;;;;;;;3.92;64.23;96951.28;5008328;28;20053;-79
2021/05/08 02:57:38;;;;;;;7.20;6.15;;;;;;;3.93;64.12;96944.38;4996419;28;20046;-79
2021/05/08 03:00:06;;;;;;;8.30;6.45;;;;;;;3.92;64.34;96937.59;4995765;28;20496;-78
2021/05/08 03:02:32;;;;;;;8.45;7.43;;;;;;;3.94;64.07;96935.69;4995787;28;20077;-80
2021/05/08 03:05:00;;;;;;;8.13;6.07;;;;;;;3.95;64.31;96933.91;4995420;28;20502;-79
2021/05/08 03:07:27;;;;;;;11.82;7.82;;;;;;;3.97;64.29;96932.81;4994472;28;20053;-78
2021/05/08 03:09:53;;;;;;;6.90;6.00;;;;;;;3.96;64.19;96938.97;4994406;28;20492;-78
2021/05/08 03:12:20;;;;;;;8.65;6.40;;;;;;;3.96;64.33;96930.38;4994664;28;20394;-79
2021/05/08 03:14:47;;;;;;;9.55;6.47;;;;;;;3.95;64.16;96932.16;4993812;28;20137;-79
2021/05/08 03:17:14;;;;;;;7.30;6.35;;;;;;;3.97;64.28;96929.44;4994006;28;20054;-79
2021/05/08 03:19:41;;;;;;;10.25;7.13;;;;;;;3.98;64.38;96926.75;4994524;28;20051;-77
2021/05/08 03:22:08;;;;;;;8.93;6.90;;;;;;;4.01;64.53;96933.41;4994196;28;20113;-78
2021/05/08 03:24:35;;;;;;;10.05;8.07;;;;;;;4.03;64.37;96936.66;4993703;28;20058;-79
2021/05/08 03:27:02;;;;;;;7.82;6.70;;;;;;;4.06;64.72;96932.03;4994044;28;20105;-79
2021/05/08 03:29:29;;;;;;;12.60;8.40;;;;;;;4.08;64.72;96935.28;4993713;28;20149;-78
2021/05/08 03:31:55;;;;;;;10.77;7.57;;;;;;;4.11;65.00;96931.63;4993974;28;20085;-79
2021/05/08 03:34:22;;;;;;;8.57;7.28;;;;;;;4.13;64.64;96945.22;4994308;28;20141;-78
2021/05/08 03:36:49;;;;;;;10.50;7.68;;;;;;;4.16;65.00;96941.59;4994000;28;20393;-78
2021/05/08 03:39:17;;;;;;;9.43;7.20;;;;;;;4.17;64.81;96953.53;4993991;28;20452;-79
2021/05/08 03:41:44;;;;;;;10.25;7.72;;;;;;;4.18;64.97;96947.44;4993636;28;20058;-79
2021/05/08 03:44:11;;;;;;;10.73;7.50;;;;;;;4.20;64.67;96932.59;4993499;28;20452;-78
2021/05/08 03:46:37;;;;;;;10.18;7.90;;;;;;;4.22;64.86;96941.88;4993232;28;20042;-78
2021/05/08 03:49:04;;;;;;;8.57;7.38;;;;;;;4.25;64.86;96940.78;4993739;28;20062;-78
2021/05/08 03:51:31;;;;;;;9.63;7.35;;;;;;;4.28;65.05;96945.66;4993613;28;20050;-79
2021/05/08 03:53:58;;;;;;;8.35;7.03;;;;;;;4.30;64.75;96938.59;4993074;28;20050;-79
2021/05/08 03:56:26;;;;;;;10.00;8.07;;;;;;;4.29;65.06;96937.78;4992718;28;20050;-78
2021/05/08 03:58:53;;;;;;;9.45;7.85;;;;;;;4.28;64.95;96927.59;4993510;28;20050;-79
2021/05/08 04:01:19;;;;;;;10.68;8.45;;;;;;;4.27;64.60;96928.56;4993238;28;20046;-78
2021/05/08 04:03:46;;;;;;;9.48;7.85;;;;;;;4.28;65.25;96932.75;4993065;28;20054;-79
2021/05/08 04:06:13;;;;;;;9.48;7.22;;;;;;;4.30;65.07;96936.03;4993198;28;20081;-79
2021/05/08 04:08:40;;;;;;;11.07;8.00;;;;;;;4.29;64.81;96935.22;4993419;28;20078;-79
2021/05/08 04:11:06;;;;;;;9.23;7.38;;;;;;;4.27;64.81;96928.56;4992905;28;20568;-79
2021/05/08 04:13:34;;;;;;;9.52;8.10;;;;;;;4.26;65.27;96932.91;4992909;28;20046;-79
2021/05/08 04:16:00;;;;;;;9.25;8.07;;;;;;;4.24;64.89;96924.47;4992949;28;20054;-78
2021/05/08 04:18:31;;;;;;;9.45;7.30;;;;;;;4.25;65.21;96925.28;4993570;28;20046;-79
2021/05/08 04:20:57;;;;;;;10.30;8.13;;;;;;;4.25;64.93;96930.44;4993068;28;20052;-78
2021/05/08 04:23:24;;;;;;;9.48;7.88;;;;;;;4.26;65.25;96929.47;4993006;28;20042;-78
2021/05/08 04:25:51;;;;;;;12.60;7.88;;;;;;;4.27;65.30;96924.19;4992949;28;20058;-78
2021/05/08 04:28:17;;;;;;;11.15;8.07;;;;;;;4.31;65.18;96919.59;4992544;28;20424;-79
2021/05/08 04:30:45;;;;;;;10.00;7.72;;;;;;;4.33;65.42;96928.81;4992978;28;20054;-78
2021/05/08 04:33:19;;;;;;;9.25;7.43;;;;;;;4.37;65.06;96926.78;4993011;28;20120;-79
2021/05/08 04:35:45;;;;;;;11.95;8.35;;;;;;;4.39;65.28;96932.63;4996053;28;20518;-80
2021/05/08 04:38:12;;;;;;;12.15;7.88;;;;;;;4.41;65.38;96928.13;4994527;28;20129;-81
2021/05/08 04:40:39;;;;;;;9.82;7.72;;;;;;;4.45;65.31;96931.28;4998999;28;20050;-80
2021/05/08 04:43:06;;;;;;;10.85;8.25;;;;;;;4.47;65.14;96940.53;4993037;28;20495;-80
2021/05/08 04:45:33;;;;;;;10.15;7.53;;;;;;;4.49;64.96;96938.63;4994959;28;20057;-79
2021/05/08 04:48:00;;;;;;;8.68;7.68;;;;;;;4.53;65.09;96939.19;4995529;28;20053;-81
2021/05/08 04:50:27;;;;;;;10.85;7.78;;;;;;;4.53;64.80;96942.56;4998058;28;20077;-82
2021/05/08 04:52:55;;;;;;;10.90;7.75;;;;;;;4.57;64.68;96939.69;5001743;28;20060;-82
2021/05/08 04:55:22;;;;;;;10.00;7.45;;;;;;;4.60;64.86;96940.25;5006149;28;20106;-80
2021/05/08 04:57:50;;;;;;;8.98;7.57;;;;;;;4.65;64.67;96937.25;5002145;28;20053;-80
2021/05/08 05:00:18;;;;;;;10.02;8.40;;;;;;;4.68;65.05;96939.56;5001668;28;20069;-81
2021/05/08 05:02:46;;;;;;;10.70;7.93;;;;;;;4.71;64.71;96936.72;5002701;28;20114;-80
2021/05/08 05:05:19;;;;;;;11.05;8.35;;;;;;;4.76;64.49;96929.38;5002852;28;20046;-80
2021/05/08 05:07:55;;;;;;;10.02;7.90;;;;;;;4.79;65.55;96931.69;5008011;28;20050;-82
2021/05/08 05:10:26;;;;;;;8.52;7.50;;;;;;;4.84;64.77;96931.28;5008298;28;20085;-81
2021/05/08 05:15:34;;;;;;;10.10;7.28;;;;;;;4.91;64.89;96925.41;5329856;22;20508;-81
2021/05/08 05:18:01;;;;;;;9.27;8.23;;;;;;;4.94;64.18;96926.91;5000153;28;20049;-81
2021/05/08 05:20:29;;;;;;;13.48;8.30;;;;;;;4.96;64.27;96937.91;4997540;28;20051;-81
2021/05/08 05:22:55;;;;;;;10.30;7.38;;;;;;;4.99;64.20;96929.09;4998114;28;20058;-81
2021/05/08 05:25:25;;;;;;;10.30;7.65;;;;;;;5.03;63.94;96935.59;5007201;28;20046;-81
2021/05/08 05:27:53;;;;;;;9.15;7.07;;;;;;;5.06;64.08;96933.56;5010947;28;20121;-81
2021/05/08 05:30:21;;;;;;;8.55;6.88;;;;;;;5.10;65.14;96932.31;5008057;28;20132;-81
2021/05/08 05:32:48;;;;;;;14.32;6.93;;;;;;;5.16;64.26;96925.78;5019384;28;20045;-81
2021/05/08 05:35:15;;;;;;;8.40;7.28;;;;;;;5.18;64.13;96923.84;5017637;28;20046;-81
2021/05/08 05:37:42;;;;;;;10.73;7.63;;;;;;;5.23;64.40;96921.69;5016695;28;20527;-78
2021/05/08 05:40:10;;;;;;;9.70;7.75;;;;;;;5.28;63.92;96919.47;5015325;28;20058;-79
2021/05/08 05:42:38;;;;;;;9.98;8.05;;;;;;;5.32;63.97;96920.03;5013570;28;20046;-79
2021/05/08 05:45:06;;;;;;;10.13;7.43;;;;;;;5.37;64.02;96926.38;4995729;28;20054;-80
2021/05/08 05:47:32;;;;;;;8.10;6.93;;;;;;;5.42;64.04;96927.75;4986620;28;20046;-79
2021/05/08 05:50:00;;;;;;;11.88;7.93;;;;;;;5.47;63.97;96925.56;5000298;28;20035;-80
2021/05/08 05:52:27;;;;;;;15.02;7.18;;;;;;;5.53;64.06;96927.56;5000195;28;20108;-80
2021/05/08 05:54:55;;;;;;;8.38;6.40;;;;;;;5.60;64.01;96936.41;4984722;28;20134;-80
2021/05/08 05:57:21;;;;;;;10.23;7.05;;;;;;;5.68;64.33;96928.72;4977459;28;20049;-79
2021/05/08 05:59:53;;;;;;;8.55;6.13;;;;;;;5.77;63.73;96935.66;4980357;28;20477;-82
2021/05/08 06:02:20;;;;;;;10.73;7.03;;;;;;;5.85;63.65;96931.53;5001133;28;20034;-81
2021/05/08 06:04:56;;;;;;;7.00;5.68;;;;;;;5.93;63.74;96939.41;5163804;23;20045;-84
2021/05/08 06:07:50;;;;;;;5.68;5.07;;;;;;;6.01;62.85;96931.72;5126296;22;20062;-80
2021/05/08 06:10:18;;;;;;;7.45;5.78;;;;;;;6.10;62.59;96938.66;5000154;28;20038;-81
2021/05/08 06:12:44;;;;;;;6.13;4.93;;;;;;;6.18;62.76;96941.31;5004134;28;20050;-80
2021/05/08 06:15:13;;;;;;;6.05;5.45;;;;;;;6.27;61.89;96933.63;4995739;28;20058;-81
2021/05/08 06:17:39;;;;;;;5.40;4.90;;;;;;;6.33;61.42;96930.47;4994580;28;20488;-81
2021/05/08 06:20:07;;;;;;;5.82;5.22;;;;;;;6.39;61.52;96927.28;4995401;28;20050;-80
2021/05/08 06:22:34;;;;;;;7.93;5.38;;;;;;;6.48;60.93;96929.00;4995234;28;20050;-80
2021/05/08 06:25:01;;;;;;;7.82;5.45;;;;;;;6.58;61.33;96928.91;4995436;28;20050;-80
2021/05/08 06:27:28;;;;;;;6.40;4.80;;;;;;;6.69;60.87;96930.47;4995084;28;20543;-81
2021/05/08 06:29:56;;;;;;;7.40;5.95;;;;;;;6.78;60.95;96935.56;4998197;28;20531;-81
2021/05/08 06:32:22;;;;;;;5.78;4.70;;;;;;;6.88;60.02;96921.72;4996711;28;20058;-80
2021/05/08 06:34:49;;;;;;;6.47;4.72;;;;;;;6.97;59.60;96915.59;4995700;28;20054;-80
2021/05/08 06:37:16;;;;;;;25.67;6.22;;;;;;;7.06;59.38;96917.28;4995117;28;20057;-80
2021/05/08 06:39:43;;;;;;;6.43;4.65;;;;;;;7.16;59.58;96917.22;4995450;28;20061;-81
2021/05/08 06:42:10;;;;;;;9.43;5.18;;;;;;;7.27;58.88;96923.94;4995368;28;20110;-81
2021/05/08 06:44:37;;;;;;;6.32;4.32;;;;;;;7.37;58.20;96920.25;4995181;28;20054;-81
2021/05/08 06:47:04;;;;;;;7.15;4.45;;;;;;;7.49;58.44;96913.03;4994921;28;20050;-80
2021/05/08 06:49:31;;;;;;;7.50;5.03;;;;;;;7.60;57.27;96919.72;4994928;28;20069;-80
2021/05/08 06:51:57;;;;;;;5.65;4.35;;;;;;;7.72;58.47;96915.06;4994743;28;20054;-81
2021/05/08 06:54:27;;;;;;;5.47;4.80;;;;;;;7.87;58.04;96917.88;4995034;28;20082;-81
2021/05/08 06:56:54;;;;;;;5.63;4.82;;;;;;;7.99;57.27;96914.84;4994821;28;20081;-80
2021/05/08 06:59:21;;;;;;;6.32;4.25;;;;;;;8.13;56.72;96923.00;4994953;28;20046;-81
2021/05/08 07:01:49;;;;;;;26.85;5.50;;;;;;;8.27;56.23;96926.78;4994865;28;20057;-81
2021/05/08 07:04:15;;;;;;;21.80;6.50;;;;;;;8.41;55.61;96918.38;4994619;28;20070;-81
2021/05/08 07:06:43;;;;;;;20.77;4.40;;;;;;;8.56;55.20;96914.19;4994365;28;20424;-80
2021/05/08 07:09:10;;;;;;;4.80;3.13;;;;;;;8.70;53.47;96917.94;4994854;28;20137;-81
2021/05/08 07:11:36;;;;;;;5.30;3.30;;;;;;;8.82;52.33;96918.44;4994785;28;20061;-81
2021/05/08 07:14:04;;;;;;;5.18;3.13;;;;;;;8.93;52.13;96912.91;4995297;28;20054;-81
2021/05/08 07:16:31;;;;;;;4.35;3.13;;;;;;;9.06;53.65;96905.41;4994792;28;20057;-81
2021/05/08 07:18:58;;;;;;;6.93;3.30;;;;;;;9.20;52.09;96906.50;4994540;28;20046;-81
2021/05/08 07:21:25;;;;;;;4.72;3.00;;;;;;;9.35;52.39;96890.22;4994447;28;20056;-81
2021/05/08 07:23:52;;;;;;;4.93;3.03;;;;;;;9.48;53.60;96896.53;4996519;28;20054;-81
2021/05/08 07:26:19;;;;;;;5.70;2.85;;;;;;;9.60;52.55;96899.59;4998615;28;20049;-80
2021/05/08 07:28:46;;;;;;;4.75;3.63;;;;;;;9.72;51.64;96901.84;5010097;28;20034;-80
2021/05/08 07:31:13;;;;;;;4.05;3.40;;;;;;;9.81;55.19;96886.00;5015379;28;20114;-81
2021/05/08 07:33:39;;;;;;;5.43;3.25;;;;;;;9.90;53.40;96895.41;5013739;28;20081;-80
2021/05/08 07:36:07;;;;;;;6.80;3.60;;;;;;;10.01;49.57;96896.81;5003315;28;20054;-81
2021/05/08 07:38:34;;;;;;;6.10;3.58;;;;;;;10.13;49.24;96886.81;4995888;28;20050;-81
2021/05/08 07:41:00;;;;;;;5.55;3.17;;;;;;;10.25;48.77;96876.81;4994472;28;20086;-81
2021/05/08 07:43:27;;;;;;;5.53;2.53;;;;;;;10.36;48.08;96873.03;4993774;28;20047;-81
2021/05/08 07:45:54;;;;;;;5.38;2.35;;;;;;;10.48;47.65;96871.63;4994112;28;20046;-81
2021/05/08 07:48:20;;;;;;;20.75;3.95;;;;;;;10.59;46.07;96881.66;4993644;28;20050;-81
2021/05/08 07:50:47;;;;;;;8.95;3.33;;;;;;;10.67;44.90;96884.22;4994237;28;20046;-81
2021/05/08 07:53:15;;;;;;;12.38;2.83;;;;;;;10.76;44.93;96886.72;4993628;28;20050;-81
2021/05/08 07:55:41;;;;;;;7.55;2.70;;;;;;;10.85;43.73;96872.66;4994437;28;20052;-81
2021/05/08 07:58:08;;;;;;;7.75;2.22;;;;;;;10.95;43.84;96873.19;4994053;28;20050;-81
2021/05/08 08:00:35;;;;;;;8.80;3.42;;;;;;;11.06;43.65;96869.34;4993883;28;20046;-80
2021/05/08 08:03:02;;;;;;;9.50;2.78;;;;;;;11.17;42.37;96870.72;4993327;28;20050;-81
2021/05/08 08:05:42;;;;;;;8.32;2.90;;;;;;;11.26;42.11;96875.69;4994168;28;20073;-81
2021/05/08 08:08:09;;;;;;;4.18;1.73;;;;;;;11.36;41.69;96880.63;4993464;28;20658;-80
2021/05/08 08:10:36;;;;;;;3.47;2.28;;;;;;;11.45;41.25;96884.78;4993441;28;20047;-81
2021/05/08 08:13:03;;;;;;;2.40;1.13;;;;;;;11.57;41.98;96879.94;4994065;28;20505;-81
2021/05/08 08:15:30;;;;;;;3.40;1.52;;;;;;;11.69;41.54;96886.31;4995125;28;20050;-81
2021/05/08 08:17:57;;;;;;;3.38;1.90;;;;;;;11.83;40.70;96881.22;4994708;28;20073;-81
2021/05/08 08:20:23;;;;;;;2.78;2.10;;;;;;;11.95;40.22;96885.03;4993550;28;20046;-81
2021/05/08 08:22:50;;;;;;;3.47;1.90;;;;;;;12.06;40.55;96887.19;4993392;28;20058;-81
2021/05/08 08:25:17;;;;;;;2.80;1.70;;;;;;;12.17;41.89;96893.75;4993449;28;20510;-80
2021/05/08 08:27:44;;;;;;;2.97;1.60;;;;;;;12.30;41.53;96893.06;4993644;28;20054;-81
2021/05/08 08:30:12;;;;;;;1.92;1.48;;;;;;;12.39;39.33;96883.31;4993489;28;20054;-81
2021/05/08 08:32:39;;;;;;;2.60;1.67;;;;;;;12.44;40.36;96889.63;4993360;28;20054;-81
2021/05/08 08:35:07;;;;;;;5.80;2.33;;;;;;;12.52;39.23;96886.06;4993482;28;20054;-81
2021/05/08 08:37:33;;;;;;;2.00;1.90;;;;;;;12.59;39.32;96886.91;4993279;28;20061;-81
2021/05/08 08:40:00;;;;;;;2.00;1.80;;;;;;;12.72;43.68;96884.41;4993715;28;20050;-81
2021/05/08 08:42:27;;;;;;;4.68;1.95;;;;;;;12.90;42.31;96884.00;4996560;28;20050;-81
2021/05/08 08:44:57;;;;;;;3.33;1.83;;;;;;;13.07;38.55;96878.47;4997077;28;20059;-80
2021/05/08 08:47:28;;;;;;;3.10;1.55;;;;;;;13.18;39.34;96883.16;4997388;28;20046;-81
2021/05/08 08:50:05;;;;;;;1.40;1.23;;;;;;;13.31;37.79;96887.72;4997558;28;20104;-81
2021/05/08 08:52:32;;;;;;;5.88;1.80;;;;;;;13.31;38.29;96882.47;4996898;28;20496;-81
2021/05/08 08:54:59;;;;;;;2.03;1.70;;;;;;;13.38;37.86;96880.69;4997016;28;20062;-81
2021/05/08 08:57:28;;;;;;;2.33;1.70;;;;;;;13.48;37.53;96883.78;4997326;28;20455;-81
2021/05/08 08:59:55;;;;;;;3.60;1.98;;;;;;;13.54;37.99;96885.66;4997028;28;20129;-81
2021/05/08 09:02:26;;;;;;;2.88;1.60;;;;;;;13.63;37.32;96880.25;4997034;28;20046;-81
2021/05/08 09:04:58;;;;;;;4.88;1.73;;;;;;;13.74;37.19;96882.31;4996944;28;20090;-80
2021/05/08 09:07:26;;;;;;;18.48;3.65;;;;;;;13.87;37.64;96885.00;4996883;28;20050;-81
2021/05/08 09:09:54;;;;;;;3.35;1.58;;;;;;;13.99;37.21;96870.34;4999382;28;20074;-81
2021/05/08 09:12:26;;;;;;;1.92;1.70;;;;;;;14.14;37.78;96875.41;4996923;28;20061;-81
2021/05/08 09:14:55;;;;;;;3.15;1.70;;;;;;;14.29;36.69;96872.63;4996550;28;20064;-81
2021/05/08 09:17:25;;;;;;;1.70;1.60;;;;;;;14.42;37.05;96862.16;4996877;28;20095;-80
2021/05/08 09:19:58;;;;;;;2.30;1.60;;;;;;;14.53;38.37;96873.88;5020476;28;20122;-80
2021/05/08 09:22:30;;;;;;;1.23;1.00;;;;;;;14.61;36.06;96875.56;5019918;28;20056;-79
2021/05/08 09:24:59;;;;;;;1.63;1.17;;;;;;;14.71;37.01;96868.06;5003892;28;20134;-81
2021/05/08 09:27:41;;;;;;;5.72;1.13;;;;;;;14.82;36.39;96858.78;4997431;28;20527;-81
2021/05/08 09:30:26;;;;;;;1.23;1.10;;;;;;;14.97;36.97;96853.34;4997806;28;20053;-81
2021/05/08 09:33:02;;;;;;;1.73;1.08;;;;;;;15.09;35.96;96846.47;5020197;28;20062;-81
2021/05/08 09:35:30;;;;;;;2.65;0.90;;;;;;;15.17;37.92;96846.22;5007274;28;20112;-81
2021/05/08 09:38:07;;;;;;;2.50;1.35;;;;;;;15.16;35.65;96849.88;4997145;28;20047;-81
2021/05/08 09:40:40;;;;;;;3.57;1.13;;;;;;;15.14;36.68;96853.72;4996602;28;20053;-81
2021/05/08 09:43:10;;;;;;;1.50;1.00;;;;;;;15.13;34.52;96845.03;4997505;28;20291;-81
2021/05/08 09:45:38;;;;;;;1.00;1.00;;;;;;;15.15;35.02;96844.81;4998106;28;20050;-81
2021/05/08 09:48:17;;;;;;;1.02;1.00;;;;;;;15.22;33.66;96840.38;4997292;28;20472;-81
2021/05/08 09:51:14;;;;;;;2.50;1.60;;;;;;;15.20;34.47;96831.91;4996427;28;20487;-81
2021/05/08 09:53:41;;;;;;;2.30;1.60;;;;;;;15.25;34.88;96835.50;4995581;28;20050;-81
2021/05/08 09:56:35;;;;;;;1.98;1.33;;;;;;;15.41;37.14;96838.72;4996767;28;20057;-81
2021/05/08 09:59:27;;;;;;;1.48;1.10;;;;;;;15.57;34.57;96833.00;4995999;28;20136;-81
2021/05/08 10:02:14;;;;;;;2.42;1.13;;;;;;;15.62;35.26;96819.25;4996422;28;20058;-81
2021/05/08 10:05:10;;;;;;;1.67;0.88;;;;;;;15.74;34.54;96832.56;4996049;28;20061;-81
2021/05/08 10:07:37;;;;;;;2.55;1.30;;;;;;;15.81;36.50;96821.00;4995872;28;20471;-81
2021/05/08 10:10:04;;;;;;;2.30;1.10;;;;;;;15.92;34.11;96818.72;4996102;28;20061;-81
2021/05/08 10:12:31;;;;;;;1.33;1.05;;;;;;;15.98;35.41;96821.34;4996222;28;20061;-81
2021/05/08 10:14:59;;;;;;;2.22;1.20;;;;;;;16.05;34.65;96814.22;4996478;28;20512;-81
2021/05/08 10:17:27;;;;;;;2.05;1.17;;;;;;;16.22;35.01;96821.59;4996579;28;20061;-81
2021/05/08 10:20:03;;;;;;;1.13;1.02;;;;;;;16.21;33.21;96805.00;4996323;28;20046;-81
2021/05/08 10:22:33;;;;;;;2.63;1.10;;;;;;;16.25;33.28;96810.66;4996383;28;20468;-81
2021/05/08 10:25:02;;;;;;;1.50;1.00;;;;;;;16.31;33.20;96816.88;4996335;28;20137;-81
2021/05/08 10:27:29;;;;;;;2.70;1.70;;;;;;;16.24;32.92;96809.03;4995973;28;20061;-81
2021/05/08 10:29:57;;;;;;;1.88;1.10;;;;;;;16.24;33.40;96801.13;4995932;28;20511;-81
2021/05/08 10:32:24;;;;;;;1.33;1.23;;;;;;;16.28;32.77;96802.31;4995651;28;20061;-81
2021/05/08 10:34:52;;;;;;;1.40;1.30;;;;;;;16.36;33.48;96804.72;4995546;28;20113;-81
2021/05/08 10:37:21;;;;;;;1.08;0.98;;;;;;;16.50;32.41;96801.97;4995708;28;20054;-81
2021/05/08 10:39:55;;;;;;;1.15;1.05;;;;;;;16.66;31.95;96788.25;4995677;28;20475;-81
2021/05/08 10:42:34;;;;;;;3.42;1.15;;;;;;;16.75;33.49;96786.16;4995813;28;20411;-81
2021/05/08 10:45:01;;;;;;;3.80;1.30;;;;;;;16.79;34.22;96782.91;4995301;28;20054;-81
2021/05/08 10:48:06;;;;;;;1.88;1.70;;;;;;;16.88;34.75;96786.91;4994973;28;20114;-81
2021/05/08 10:50:54;;;;;;;2.58;1.10;;;;;;;16.92;34.33;96779.34;4995770;28;20050;-81
2021/05/08 10:53:36;;;;;;;1.27;1.05;;;;;;;16.83;32.74;96778.81;4995928;28;20046;-81
2021/05/08 10:56:03;;;;;;;1.42;1.10;;;;;;;16.81;32.14;96780.88;4994989;28;20428;-81
2021/05/08 10:58:40;;;;;;;2.47;1.02;;;;;;;16.87;31.44;96768.66;4994807;28;20054;-81
2021/05/08 11:01:09;;;;;;;1.95;1.10;;;;;;;16.97;33.04;96758.44;4995259;28;20490;-81
2021/05/08 11:04:03;;;;;;;1.77;1.02;;;;;;;17.11;33.29;96759.09;4994966;28;20112;-81
2021/05/08 11:06:29;;;;;;;2.78;2.25;;;;;;;17.27;32.30;96758.53;4994721;28;20055;-80
2021/05/08 11:08:57;;;;;;;1.45;1.35;;;;;;;17.39;31.34;96760.44;4994956;28;20057;-81
2021/05/08 11:11:43;;;;;;;4.38;1.20;;;;;;;17.50;31.09;96755.19;4994690;28;20428;-81
2021/05/08 11:14:10;;;;;;;4.22;1.70;;;;;;;17.60;32.20;96752.06;4994751;28;20051;-81
2021/05/08 11:16:54;;;;;;;1.17;1.13;;;;;;;17.77;31.88;96743.50;4995134;28;20043;-81
2021/05/08 11:19:23;;;;;;;3.63;1.50;;;;;;;17.90;32.95;96746.00;4994581;28;20464;-81
2021/05/08 11:22:04;;;;;;;2.60;1.75;;;;;;;17.98;31.44;96735.13;4994565;28;20498;-81
2021/05/08 11:24:37;;;;;;;1.92;1.60;;;;;;;18.02;31.20;96727.56;4996879;28;20090;-81
2021/05/08 11:27:20;;;;;;;1.70;1.38;;;;;;;18.05;33.01;96735.03;4997532;28;20069;-82
2021/05/08 11:29:47;;;;;;;4.75;1.38;;;;;;;18.18;32.14;96731.38;4994724;28;20128;-81
2021/05/08 11:32:14;;;;;;;3.33;1.23;;;;;;;18.31;32.00;96723.25;4994624;28;20046;-82
2021/05/08 11:34:43;;;;;;;0.95;0.90;;;;;;;18.29;31.01;96727.97;4994585;28;20077;-81
2021/05/08 11:37:13;;;;;;;2.38;1.33;;;;;;;18.23;30.43;96726.22;4994439;28;20094;-81
2021/05/08 11:39:42;;;;;;;1.90;1.10;;;;;;;18.16;31.20;96720.25;4994656;28;20074;-81
2021/05/08 11:42:15;;;;;;;2.88;1.40;;;;;;;18.16;30.25;96720.25;4994366;28;20497;-81
2021/05/08 11:44:42;;;;;;;1.55;1.17;;;;;;;18.20;30.90;96719.56;4994319;28;20046;-81
2021/05/08 11:47:30;;;;;;;1.40;1.30;;;;;;;18.21;31.42;96717.72;4994295;28;20056;-81